Terminal Aerodrome Forecast
Issued by NWS

Home | Current Version | Previous Version | Text Only | Print | Product List | Glossary On
Versions: 1 2 3 4 5 6 7 8 9 10 11 12 13 14 15 16 17 18 19 20 21 22 23 24 25 26 27 28 29 30 31 32 33 34 35 36 37
000
FTUS45 KBOU 272016 AAC
TAFAPA
TAF AMD
KAPA 272016Z 2720/2818 33015KT 5SM -TSRA BKN020 OVC035CB
      TEMPO 2720/2721 P6SM -RA BKN035 BKN045
     FM272100 34012G18KT P6SM VCSH SCT045 BKN060
      TEMPO 2721/2722 -SHRA BKN035
     FM280000 32008KT P6SM BKN060 BKN100
     FM280500 24006KT P6SM FEW060 SCT120
     FM281400 33008KT P6SM FEW140=

USA.gov is the U.S. government's official web portal to all federal, state and local government web resources and services.